Air Resources Laboratory banner image
Air Resources Laboratory web site National Oceanic and Atmospheric Administration (NOAA)

ia metar


KADU 201555Z AUTO 00000KT 10SM BKN031 OVC038 M06/M08 A3027 RMK AO2=
KAIO 201555Z AUTO 21010KT 10SM BKN037 BKN044 M06/M07 A3030 RMK AO2=
KALO 201554Z 24012KT 10SM CLR M06/M10 A3028 RMK AO2 SLP266 T10611100=
KAMW 201553Z AUTO 21010KT 10SM BKN034 M06/M09 A3029 RMK AO2 SLP268 T10611094=
KAWG 201555Z AUTO 26007KT 10SM BKN020 M03/M05 A3032 RMK AO2=
KAXA 201555Z AUTO 21013KT 10SM OVC028 M09/M10 A3019 RMK AO2 PWINO=
KBNW 201555Z AUTO 22009KT 10SM OVC031 M07/M09 A3026 RMK AO2=
KBRL 201553Z AUTO 30007KT 10SM FEW026 M02/M08 A3033 RMK AO2 SLP280 T10171083=
KCAV 201555Z AUTO 22012KT 10SM OVC029 M08/M10 A3024 RMK AO2 PWINO=
KCBF 201555Z AUTO 18008KT 10SM CLR M04/M05 A3028 RMK AO2=
KCCY 201555Z AUTO 23008KT 10SM CLR M09/M12 A3025 RMK AO2=
KCID 201552Z 29008KT 9SM FEW021 M04/M08 A3028 RMK AO2 SLP267 T10441083=
KCIN 201555Z AUTO 21013KT 10SM OVC031 M05/M07 A3025 RMK AO2=
KCNC 201555Z AUTO 21008KT 10SM BKN033 M06/M08 A3031 RMK AO2=
KCSQ 201555Z AUTO 19008KT 10SM OVC035 M06/M08 A3031 RMK AO2=
KCWI 201556Z AUTO 28010KT 10SM SCT014 M02/M06 A3030 RMK AO2 SLP288 T10221061
 FZRANO=
KDBQ 201553Z 27008KT 10SM CLR M06/M09 A3025 RMK AO2 SLP261 T10561094 $=
KDEH 201555Z AUTO 25007KT 10SM FEW018 M06/M10 A3022 RMK AO2=
KDNS 201555Z AUTO 20011KT 10SM CLR M04/M07 A3027 RMK AO2=
KDSM 201554Z 23008KT 10SM OVC035 M06/M09 A3031 RMK AO2 SLP277 T10561089=
KDVN 201552Z AUTO 29008KT 10SM CLR M03/M08 A3031 RMK AO2 SLP271 T10281083=
KEBS 201555Z AUTO 22011KT 10SM OVC031 M07/M10 A3023 RMK AO2=
KEOK 201555Z AUTO VRB05KT 10SM OVC023 M01/M07 A3035 RMK AO2=
KEST 201552Z AUTO 21014G21KT 10SM OVC025 M08/M11 A3016 RMK AO2 SLP237 T10831106=
KFFL 201555Z AUTO 27009KT 9SM OVC017 M04/M08 A3032 RMK AO2 PWINO=
KFOD 201556Z AUTO 21009KT 10SM OVC031 M07/M09 A3025 RMK AO2 SLP291 T10671089
 FZRANO=
KFSW 201555Z AUTO 26006KT 10SM BKN026 M02/M07 A3035 RMK AO2=
KICL 201555Z AUTO 20006KT 10SM CLR M06/M07 A3036 RMK AO2=
KIKV 201555Z AUTO 10SM OVC033 M05/M09 A3032 RMK AO2=
KIOW 201552Z AUTO 29008KT 10SM OVC021 M03/M08 A3033 RMK AO2 SLP279 T10331083=
KLRJ 201555Z AUTO 19012KT 10SM CLR M04/M08 A3019 RMK AO2=
KLWD 201553Z AUTO 00000KT 10SM CLR M05/M08 A3034 RMK AO2 SLP289 T10501083=
KMCW 201553Z AUTO 23013KT 10SM CLR M09/M11 A3023 RMK AO2 SLP254 T10891111=
KMIW 201553Z AUTO 24011KT 10SM CLR M06/M08 A3027 RMK AO2 SLP265 T10561083=
KMUT 201555Z AUTO 27008KT 10SM OVC024 M02/M08 A3033 RMK AO2=
KMXO 201555Z AUTO 29007KT 10SM CLR M05/M09 A3028 RMK AO2=
KORC 201555Z AUTO 20010KT 10SM CLR M04/M06 A3017 RMK AO2=
KOTM 201553Z AUTO 24009KT 10SM BKN017 M04/M08 A3032 RMK AO2 SLP280 T10441078=
KOXV 201555Z AUTO 23008KT 10SM FEW033 M05/M07 A3032 RMK AO2=
KRDK 201555Z AUTO 20009KT 10SM CLR M05/M07 A3033 RMK AO2=
KSDA 201555Z AUTO 20005KT 10SM CLR M04/M08 A3035 RMK AO2=
KSHL 201555Z AUTO 19010KT 10SM OVC021 M05/M07 A3016 RMK AO2=
KSLB 201555Z AUTO 22012KT 10SM OVC025 M06/M08 A3020 RMK AO2=
KSPW 201553Z AUTO 21009KT 10SM BKN026 M07/M09 A3019 RMK AO2 SLP246 T10671094=
KSUX 201552Z 17008KT 10SM CLR M04/M08 A3023 RMK AO2 SLP255 T10391078=
KTNU 201555Z AUTO 22010KT 10SM CLR M04/M08 A3029 RMK AO2 PWINO=